Time;durP1;ratioP1;P1;durP2;ratioP2;P2;SDS_P1;SDS_P2;PMS_P1;PMS_P2;Temp;Humidity;BMP_temperature;BMP_pressure;BME280_temperature;BME280_humidity;BME280_pressure;Samples;Min_cycle;Max_cycle;Signal;HPM_P1;HPM_P2
2023/02/28 00:00:43;;;;;;;8.05;7.55;;;;;;;;;;4995337;28;20068;-48
2023/02/28 00:03:08;;;;;;;8.55;7.95;;;;;;;;;;4996202;28;20112;-51
2023/02/28 00:05:33;;;;;;;8.10;7.60;;;;;;;;;;4999116;28;20606;-52
2023/02/28 00:07:59;;;;;;;8.50;7.90;;;;;;;;;;4994004;28;20044;-50
2023/02/28 00:10:27;;;;;;;8.40;7.90;;;;;;;;;;4996259;28;20049;-49
2023/02/28 00:12:56;;;;;;;8.68;8.07;;;;;;;;;;4997342;28;20121;-48
2023/02/28 00:15:23;;;;;;;8.88;8.27;;;;;;;;;;4997138;28;20066;-50
2023/02/28 00:17:48;;;;;;;8.60;8.10;;;;;;;;;;4993630;28;20469;-50
2023/02/28 00:20:15;;;;;;;8.73;8.13;;;;;;;;;;4994451;28;20038;-49
2023/02/28 00:22:43;;;;;;;8.40;7.90;;;;;;;;;;4996743;28;20030;-52
2023/02/28 00:25:10;;;;;;;7.63;7.13;;;;;;;;;;4995563;28;20583;-50
2023/02/28 00:27:37;;;;;;;7.75;7.25;;;;;;;;;;4995028;28;20038;-50
2023/02/28 00:30:04;;;;;;;8.40;7.90;;;;;;;;;;4994667;28;20126;-50
2023/02/28 00:32:29;;;;;;;7.95;7.45;;;;;;;;;;4995981;28;20045;-48
2023/02/28 00:34:55;;;;;;;8.35;7.85;;;;;;;;;;4995620;28;20041;-50
2023/02/28 00:37:20;;;;;;;8.80;8.20;;;;;;;;;;4993900;28;20030;-51
2023/02/28 00:39:45;;;;;;;8.10;7.60;;;;;;;;;;4994831;28;20030;-50
2023/02/28 00:42:11;;;;;;;9.05;8.45;;;;;;;;;;4993591;28;20456;-47
2023/02/28 00:44:36;;;;;;;8.60;8.10;;;;;;;;;;4994347;28;20045;-51
2023/02/28 00:47:01;;;;;;;8.20;7.70;;;;;;;;;;4991992;28;20030;-48
2023/02/28 00:49:27;;;;;;;9.00;8.40;;;;;;;;;;4994511;28;20034;-48
2023/02/28 00:51:54;;;;;;;8.50;8.00;;;;;;;;;;4994414;28;20053;-49
2023/02/28 00:54:19;;;;;;;8.50;8.00;;;;;;;;;;4995256;28;20041;-51
2023/02/28 00:56:45;;;;;;;8.05;7.55;;;;;;;;;;4991281;28;20041;-47
2023/02/28 00:59:12;;;;;;;8.65;8.10;;;;;;;;;;4993339;28;20026;-48
2023/02/28 01:01:37;;;;;;;9.27;8.68;;;;;;;;;;4991917;28;20121;-50
2023/02/28 01:04:03;;;;;;;9.50;8.90;;;;;;;;;;4993286;28;20508;-48
2023/02/28 01:06:28;;;;;;;9.00;8.40;;;;;;;;;;4990702;28;20034;-48
2023/02/28 01:08:53;;;;;;;9.05;8.45;;;;;;;;;;4996091;28;20083;-50
2023/02/28 01:11:19;;;;;;;8.02;7.53;;;;;;;;;;4992562;28;20538;-51
2023/02/28 01:13:45;;;;;;;9.70;9.00;;;;;;;;;;4993966;28;20137;-48
2023/02/28 01:16:11;;;;;;;8.60;8.10;;;;;;;;;;4992779;28;20116;-49
2023/02/28 01:18:37;;;;;;;9.68;9.02;;;;;;;;;;4994298;28;20495;-50
2023/02/28 01:21:07;;;;;;;8.30;7.80;;;;;;;;;;4993126;28;20034;-48
2023/02/28 01:23:33;;;;;;;8.53;8.03;;;;;;;;;;4993700;28;20456;-49
2023/02/28 01:26:17;;;;;;;7.93;7.43;;;;;;;;;;4994854;28;20280;-50
2023/02/28 01:28:42;;;;;;;8.40;7.90;;;;;;;;;;4992242;28;20045;-50
2023/02/28 01:31:09;;;;;;;8.57;7.97;;;;;;;;;;4996524;28;20030;-48
2023/02/28 01:33:35;;;;;;;9.25;8.65;;;;;;;;;;4995872;28;20080;-51
2023/02/28 01:36:02;;;;;;;8.43;7.93;;;;;;;;;;4998605;28;20061;-49
2023/02/28 01:38:28;;;;;;;18.92;7.97;;;;;;;;;;4996658;28;20046;-48
2023/02/28 01:40:54;;;;;;;9.48;8.68;;;;;;;;;;4997597;28;20100;-50
2023/02/28 01:43:25;;;;;;;8.38;7.80;;;;;;;;;;4998934;28;20065;-50
2023/02/28 01:45:51;;;;;;;;;;;;;;;;;;4998167;28;20045;-50
2023/02/28 01:48:18;;;;;;;9.05;8.45;;;;;;;;;;4994847;28;20522;-47
2023/02/28 01:50:45;;;;;;;8.02;7.53;;;;;;;;;;4996322;28;20118;-47
2023/02/28 01:53:15;;;;;;;8.35;7.85;;;;;;;;;;4996585;28;20371;-49
2023/02/28 01:55:44;;;;;;;8.30;7.80;;;;;;;;;;4997158;28;20136;-49
2023/02/28 01:58:10;;;;;;;8.68;8.07;;;;;;;;;;4997736;28;20042;-50
2023/02/28 02:00:36;;;;;;;8.55;7.95;;;;;;;;;;4997800;28;20357;-49
2023/02/28 02:03:08;;;;;;;9.15;8.10;;;;;;;;;;4994807;28;20045;-50
2023/02/28 02:05:37;;;;;;;9.07;8.48;;;;;;;;;;4995778;28;20726;-47
2023/02/28 02:08:06;;;;;;;8.07;7.57;;;;;;;;;;4996869;28;20040;-48
2023/02/28 02:10:40;;;;;;;8.52;8.02;;;;;;;;;;4996183;28;20054;-49
2023/02/28 02:13:29;;;;;;;8.25;7.75;;;;;;;;;;4999600;28;20038;-47
2023/02/28 02:16:00;;;;;;;9.60;9.00;;;;;;;;;;4994538;28;20148;-50
2023/02/28 02:18:40;;;;;;;8.43;7.93;;;;;;;;;;4994968;28;20033;-50
2023/02/28 02:21:24;;;;;;;9.15;8.45;;;;;;;;;;4996937;28;20046;-46
2023/02/28 02:24:14;;;;;;;8.30;7.80;;;;;;;;;;4995098;28;20049;-48
2023/02/28 02:26:49;;;;;;;8.48;7.95;;;;;;;;;;4996570;28;20069;-51
2023/02/28 02:29:21;;;;;;;8.60;8.02;;;;;;;;;;4997350;28;20056;-48
2023/02/28 02:32:00;;;;;;;8.45;7.95;;;;;;;;;;4994968;28;20029;-49
2023/02/28 02:35:05;;;;;;;8.32;7.80;;;;;;;;;;4996645;28;20038;-49
2023/02/28 02:37:52;;;;;;;9.20;8.60;;;;;;;;;;4996496;28;20049;-49
2023/02/28 02:40:21;;;;;;;8.23;7.72;;;;;;;;;;4998488;28;20042;-51
2023/02/28 02:43:21;;;;;;;8.77;8.18;;;;;;;;;;4995103;28;20518;-48
2023/02/28 02:45:50;;;;;;;9.02;8.43;;;;;;;;;;4996282;28;20129;-47
2023/02/28 02:48:19;;;;;;;9.15;8.55;;;;;;;;;;5004286;28;20533;-50
2023/02/28 02:50:51;;;;;;;8.98;8.38;;;;;;;;;;4997237;28;20388;-51
2023/02/28 02:53:18;;;;;;;;;;;;;;;;;;4997205;28;20153;-51
2023/02/28 02:55:47;;;;;;;8.55;8.02;;;;;;;;;;4992055;28;19913;-49
2023/02/28 02:58:18;;;;;;;9.30;8.70;;;;;;;;;;4995102;28;20471;-51
2023/02/28 03:00:50;;;;;;;8.57;8.02;;;;;;;;;;4997012;28;20191;-51
2023/02/28 03:03:20;;;;;;;8.50;8.00;;;;;;;;;;4997064;28;20038;-51
2023/02/28 03:05:48;;;;;;;9.15;8.55;;;;;;;;;;4996764;28;20400;-47
2023/02/28 03:08:14;;;;;;;8.32;7.72;;;;;;;;;;4995954;28;20041;-48
2023/02/28 03:10:49;;;;;;;9.40;8.68;;;;;;;;;;4996707;28;20040;-49
2023/02/28 03:13:39;;;;;;;8.93;8.23;;;;;;;;;;4993771;28;20030;-51
2023/02/28 03:16:29;;;;;;;8.93;8.32;;;;;;;;;;4997177;28;20038;-48
2023/02/28 03:19:01;;;;;;;8.90;8.30;;;;;;;;;;4992998;28;20346;-49
2023/02/28 03:21:45;;;;;;;8.85;8.25;;;;;;;;;;4995974;28;20065;-49
2023/02/28 03:24:16;;;;;;;8.43;7.90;;;;;;;;;;4995278;28;20030;-47
2023/02/28 03:26:46;;;;;;;;;;;;;;;;;;5001600;28;20403;-48
2023/02/28 03:29:17;;;;;;;8.98;8.38;;;;;;;;;;4993133;28;19922;-50
2023/02/28 03:31:51;;;;;;;9.10;8.50;;;;;;;;;;4996599;28;20095;-47
2023/02/28 03:34:24;;;;;;;8.57;8.02;;;;;;;;;;4994850;28;20034;-50
2023/02/28 03:36:59;;;;;;;8.52;8.02;;;;;;;;;;4995744;28;20066;-50
2023/02/28 03:39:30;;;;;;;8.70;8.10;;;;;;;;;;5001371;28;20049;-51
2023/02/28 03:42:02;;;;;;;8.90;8.30;;;;;;;;;;5000043;28;20105;-51
2023/02/28 03:44:39;;;;;;;10.32;9.65;;;;;;;;;;5002080;28;20061;-53
2023/02/28 03:47:12;;;;;;;9.48;8.77;;;;;;;;;;4994353;28;20030;-52
2023/02/28 03:49:49;;;;;;;9.52;8.93;;;;;;;;;;4999136;28;20034;-52
2023/02/28 03:52:18;;;;;;;9.82;9.23;;;;;;;;;;4995978;28;20040;-51
2023/02/28 03:54:49;;;;;;;8.75;8.20;;;;;;;;;;4994478;28;20045;-51
2023/02/28 03:57:40;;;;;;;8.45;7.95;;;;;;;;;;4994235;28;20034;-50
2023/02/28 04:00:13;;;;;;;9.50;8.90;;;;;;;;;;4992961;28;20042;-48
2023/02/28 04:02:39;;;;;;;8.82;8.23;;;;;;;;;;4995275;28;20376;-50
2023/02/28 04:05:06;;;;;;;9.10;8.50;;;;;;;;;;4994762;28;20717;-51
2023/02/28 04:07:32;;;;;;;9.32;8.63;;;;;;;;;;4993468;28;20093;-48
2023/02/28 04:09:58;;;;;;;8.40;7.90;;;;;;;;;;4998058;28;20241;-47
2023/02/28 04:12:24;;;;;;;8.32;7.82;;;;;;;;;;4994208;28;20030;-57
2023/02/28 04:14:50;;;;;;;8.70;8.10;;;;;;;;;;4994045;28;20042;-55
2023/02/28 04:17:16;;;;;;;9.23;8.63;;;;;;;;;;4992350;28;20027;-57
2023/02/28 04:19:41;;;;;;;9.25;8.65;;;;;;;;;;4996724;28;20038;-56
2023/02/28 04:22:08;;;;;;;9.80;9.18;;;;;;;;;;4990404;28;20456;-57
2023/02/28 04:24:34;;;;;;;9.13;8.52;;;;;;;;;;4993677;28;20041;-56
2023/02/28 04:26:59;;;;;;;9.25;8.65;;;;;;;;;;4993365;28;20034;-57
2023/02/28 04:29:30;;;;;;;8.82;8.25;;;;;;;;;;4993961;28;20082;-57
2023/02/28 04:31:59;;;;;;;10.03;9.43;;;;;;;;;;5001313;28;20045;-56
2023/02/28 04:34:25;;;;;;;9.05;8.45;;;;;;;;;;4995683;28;20057;-56
2023/02/28 04:36:54;;;;;;;9.45;8.85;;;;;;;;;;4990512;28;20030;-57
2023/02/28 04:39:20;;;;;;;9.45;8.85;;;;;;;;;;4994436;28;20042;-55
2023/02/28 04:41:46;;;;;;;9.32;8.73;;;;;;;;;;4986929;28;20041;-56
2023/02/28 04:44:11;;;;;;;9.18;8.57;;;;;;;;;;4990358;28;20030;-56
2023/02/28 04:46:37;;;;;;;9.20;8.55;;;;;;;;;;4995249;28;20030;-56
2023/02/28 04:49:02;;;;;;;9.35;8.75;;;;;;;;;;4994082;28;20034;-57
2023/02/28 04:51:28;;;;;;;9.65;9.00;;;;;;;;;;4994838;28;20121;-58
2023/02/28 04:53:53;;;;;;;9.65;9.05;;;;;;;;;;4996835;28;20167;-57
2023/02/28 04:56:19;;;;;;;9.45;8.85;;;;;;;;;;4993843;28;20375;-57
2023/02/28 04:58:45;;;;;;;8.90;8.30;;;;;;;;;;4994589;28;20272;-56
2023/02/28 05:01:26;;;;;;;9.73;8.93;;;;;;;;;;4994069;28;20383;-56
2023/02/28 05:03:53;;;;;;;9.27;8.68;;;;;;;;;;4992908;28;20352;-56
2023/02/28 05:06:20;;;;;;;9.38;8.77;;;;;;;;;;4996526;28;20392;-57
2023/02/28 05:08:46;;;;;;;9.40;8.80;;;;;;;;;;4995259;28;20050;-58
2023/02/28 05:11:18;;;;;;;9.75;9.15;;;;;;;;;;4994970;28;20081;-58
2023/02/28 05:13:44;;;;;;;9.57;8.95;;;;;;;;;;4995295;28;20033;-56
2023/02/28 05:16:10;;;;;;;9.35;8.75;;;;;;;;;;4990575;28;20030;-55
2023/02/28 05:18:35;;;;;;;8.65;8.07;;;;;;;;;;4993343;28;20038;-56
2023/02/28 05:21:03;;;;;;;9.13;8.52;;;;;;;;;;4993919;28;20116;-56
2023/02/28 05:23:29;;;;;;;8.98;8.38;;;;;;;;;;4993850;28;20041;-56
2023/02/28 05:25:54;;;;;;;9.35;8.75;;;;;;;;;;4983892;28;20034;-56
2023/02/28 05:28:20;;;;;;;9.25;8.65;;;;;;;;;;4997307;28;20045;-56
2023/02/28 05:30:46;;;;;;;8.88;8.27;;;;;;;;;;4992037;28;20046;-57
2023/02/28 05:33:12;;;;;;;9.32;8.63;;;;;;;;;;4991259;28;20428;-56
2023/02/28 05:35:42;;;;;;;9.45;8.85;;;;;;;;;;4992491;28;20578;-57
2023/02/28 05:38:08;;;;;;;9.25;8.57;;;;;;;;;;4991116;28;20038;-58
2023/02/28 05:40:33;;;;;;;9.25;8.65;;;;;;;;;;4992378;28;20038;-57
2023/02/28 05:42:58;;;;;;;8.77;8.18;;;;;;;;;;4994147;28;20064;-58
2023/02/28 05:45:23;;;;;;;10.02;9.43;;;;;;;;;;4994399;28;20038;-58
2023/02/28 05:47:53;;;;;;;8.88;8.30;;;;;;;;;;4992862;28;20022;-58
2023/02/28 05:50:18;;;;;;;8.60;8.00;;;;;;;;;;4990340;28;20509;-58
2023/02/28 05:52:44;;;;;;;9.18;8.57;;;;;;;;;;4993246;28;20031;-59
2023/02/28 05:55:09;;;;;;;9.35;8.75;;;;;;;;;;4993114;28;20042;-60
2023/02/28 05:57:34;;;;;;;9.18;8.57;;;;;;;;;;4992849;28;20042;-58
2023/02/28 06:00:00;;;;;;;9.60;9.00;;;;;;;;;;4992769;28;20046;-58
2023/02/28 06:02:25;;;;;;;8.60;8.10;;;;;;;;;;4989445;28;20097;-58
2023/02/28 06:04:50;;;;;;;9.98;9.27;;;;;;;;;;4995998;28;20034;-57
2023/02/28 06:07:17;;;;;;;9.05;8.45;;;;;;;;;;4992878;28;20034;-59
2023/02/28 06:09:42;;;;;;;9.10;8.50;;;;;;;;;;4994445;28;20031;-58
2023/02/28 06:12:09;;;;;;;8.73;8.20;;;;;;;;;;4987438;28;20093;-57
2023/02/28 06:14:36;;;;;;;9.40;8.70;;;;;;;;;;4993039;28;20061;-57
2023/02/28 06:17:02;;;;;;;14.18;8.73;;;;;;;;;;4991056;28;20034;-59
2023/02/28 06:19:28;;;;;;;9.38;8.77;;;;;;;;;;4997500;28;20026;-56
2023/02/28 06:21:54;;;;;;;8.60;8.05;;;;;;;;;;4997518;28;20074;-59
2023/02/28 06:24:24;;;;;;;9.30;8.60;;;;;;;;;;4995602;28;20130;-56
2023/02/28 06:26:49;;;;;;;8.68;8.15;;;;;;;;;;4996200;28;20487;-59
2023/02/28 06:29:18;;;;;;;9.57;8.93;;;;;;;;;;4996622;28;20041;-54
2023/02/28 06:31:47;;;;;;;9.23;8.63;;;;;;;;;;4998351;28;20030;-56
2023/02/28 06:34:13;;;;;;;8.50;8.00;;;;;;;;;;4986154;28;20039;-55
2023/02/28 06:36:39;;;;;;;9.80;9.20;;;;;;;;;;4995883;28;20068;-55
2023/02/28 06:39:05;;;;;;;8.63;8.10;;;;;;;;;;4995417;28;20038;-53
2023/02/28 06:41:30;;;;;;;9.35;8.73;;;;;;;;;;4996152;28;20096;-57
2023/02/28 06:43:56;;;;;;;9.25;8.65;;;;;;;;;;4990902;28;20049;-55
2023/02/28 06:46:21;;;;;;;9.80;9.20;;;;;;;;;;4994508;28;20037;-55
2023/02/28 06:48:47;;;;;;;9.68;9.07;;;;;;;;;;4996377;28;20034;-56
2023/02/28 06:51:16;;;;;;;9.30;8.70;;;;;;;;;;4992970;28;20048;-55
2023/02/28 06:53:42;;;;;;;9.38;8.77;;;;;;;;;;4997595;28;20045;-54
2023/02/28 06:56:10;;;;;;;9.80;9.20;;;;;;;;;;4992945;28;20041;-55
2023/02/28 06:58:37;;;;;;;8.82;8.25;;;;;;;;;;4996161;28;20463;-56
2023/02/28 07:01:03;;;;;;;9.75;9.15;;;;;;;;;;4993836;28;20038;-58
2023/02/28 07:03:29;;;;;;;9.75;9.15;;;;;;;;;;4995926;28;20041;-54
2023/02/28 07:05:56;;;;;;;10.38;9.57;;;;;;;;;;4989452;28;20038;-56
2023/02/28 07:08:25;;;;;;;9.90;9.30;;;;;;;;;;4994578;28;20028;-57
2023/02/28 07:10:54;;;;;;;9.30;8.70;;;;;;;;;;4996750;28;20030;-56
2023/02/28 07:13:21;;;;;;;9.02;8.43;;;;;;;;;;5002493;28;20034;-56
2023/02/28 07:16:01;;;;;;;8.90;8.30;;;;;;;;;;4992292;28;20139;-56
2023/02/28 07:18:27;;;;;;;9.18;8.57;;;;;;;;;;4994354;28;20101;-54
2023/02/28 07:20:52;;;;;;;8.60;8.07;;;;;;;;;;4997893;28;20037;-57
2023/02/28 07:23:18;;;;;;;9.30;8.70;;;;;;;;;;4993536;28;20069;-54
2023/02/28 07:25:45;;;;;;;9.18;8.52;;;;;;;;;;4994526;28;20030;-52
2023/02/28 07:28:11;;;;;;;8.55;8.05;;;;;;;;;;4995665;28;20040;-54
2023/02/28 07:30:36;;;;;;;9.38;8.77;;;;;;;;;;4996878;28;20034;-54
2023/02/28 07:33:02;;;;;;;8.35;7.75;;;;;;;;;;4994538;28;20041;-54
2023/02/28 07:35:27;;;;;;;8.18;7.68;;;;;;;;;;4995028;28;20042;-55
2023/02/28 07:37:52;;;;;;;9.18;8.57;;;;;;;;;;4995819;28;20512;-56
2023/02/28 07:40:18;;;;;;;9.55;8.95;;;;;;;;;;4997624;28;20037;-56
2023/02/28 07:42:44;;;;;;;9.45;8.85;;;;;;;;;;4996080;28;20030;-55
2023/02/28 07:45:11;;;;;;;10.05;9.35;;;;;;;;;;4994741;28;20181;-55
2023/02/28 07:47:38;;;;;;;10.32;9.73;;;;;;;;;;4997714;28;20138;-56
2023/02/28 07:50:05;;;;;;;9.82;9.13;;;;;;;;;;4994384;28;20034;-56
2023/02/28 07:52:30;;;;;;;9.40;8.80;;;;;;;;;;4992849;28;20030;-56
2023/02/28 07:54:56;;;;;;;9.10;8.50;;;;;;;;;;4996738;28;20037;-55
2023/02/28 07:57:21;;;;;;;9.20;8.60;;;;;;;;;;4992710;28;20096;-56
2023/02/28 07:59:47;;;;;;;9.00;8.40;;;;;;;;;;4992514;28;20469;-57
2023/02/28 08:02:14;;;;;;;9.98;9.27;;;;;;;;;;4993665;28;20055;-56
2023/02/28 08:04:40;;;;;;;8.90;8.30;;;;;;;;;;4990847;28;20481;-55
2023/02/28 08:07:05;;;;;;;9.52;8.88;;;;;;;;;;4994316;28;20141;-57
2023/02/28 08:09:31;;;;;;;8.43;7.93;;;;;;;;;;4998103;28;20030;-57
2023/02/28 08:11:56;;;;;;;9.38;8.77;;;;;;;;;;4992526;28;20464;-57
2023/02/28 08:14:22;;;;;;;9.45;8.85;;;;;;;;;;4993061;28;20046;-57
2023/02/28 08:16:47;;;;;;;10.25;9.55;;;;;;;;;;4995983;28;20042;-57
2023/02/28 08:19:12;;;;;;;9.00;8.40;;;;;;;;;;4993133;28;20042;-56
2023/02/28 08:21:37;;;;;;;8.98;8.38;;;;;;;;;;4992201;28;20062;-55
2023/02/28 08:24:03;;;;;;;9.23;8.63;;;;;;;;;;4992900;28;20042;-55
2023/02/28 08:26:28;;;;;;;9.02;8.43;;;;;;;;;;4991248;28;20037;-54
2023/02/28 08:28:54;;;;;;;9.07;8.48;;;;;;;;;;4994617;28;20030;-53
2023/02/28 08:31:19;;;;;;;9.18;8.57;;;;;;;;;;4993659;28;20053;-54
2023/02/28 08:33:45;;;;;;;9.10;8.50;;;;;;;;;;4997932;28;20053;-55
2023/02/28 08:36:11;;;;;;;9.48;8.77;;;;;;;;;;4994483;28;20073;-54
2023/02/28 08:38:37;;;;;;;9.75;9.15;;;;;;;;;;4993666;28;20464;-54
2023/02/28 08:41:07;;;;;;;9.45;8.85;;;;;;;;;;4991906;28;20482;-54
2023/02/28 08:43:35;;;;;;;10.15;9.55;;;;;;;;;;4994201;28;20042;-55
2023/02/28 08:46:00;;;;;;;10.45;9.85;;;;;;;;;;4993044;28;20034;-55
2023/02/28 08:48:28;;;;;;;14.20;9.10;;;;;;;;;;4993175;28;20088;-57
2023/02/28 08:51:02;;;;;;;10.18;9.50;;;;;;;;;;4991396;28;20069;-54
2023/02/28 08:53:27;;;;;;;9.55;8.95;;;;;;;;;;4991441;28;20032;-55
2023/02/28 08:56:13;;;;;;;10.95;10.25;;;;;;;;;;4988377;28;20379;-54
2023/02/28 08:58:38;;;;;;;9.25;8.65;;;;;;;;;;4992365;28;20573;-54
2023/02/28 09:01:09;;;;;;;10.95;10.25;;;;;;;;;;4992732;28;20050;-51
2023/02/28 09:03:34;;;;;;;11.60;10.90;;;;;;;;;;4991405;28;20084;-54
2023/02/28 09:06:00;;;;;;;11.00;10.32;;;;;;;;;;4991051;28;20050;-54
2023/02/28 09:08:28;;;;;;;11.20;10.50;;;;;;;;;;4994107;28;20044;-52
2023/02/28 09:10:54;;;;;;;11.43;10.73;;;;;;;;;;4995753;28;20042;-53
2023/02/28 09:13:20;;;;;;;10.65;10.00;;;;;;;;;;4994066;28;20491;-55
2023/02/28 09:15:45;;;;;;;11.35;10.65;;;;;;;;;;4994074;28;20113;-55
2023/02/28 09:18:11;;;;;;;11.60;10.90;;;;;;;;;;4994358;28;20046;-56
2023/02/28 09:20:41;;;;;;;12.25;11.52;;;;;;;;;;4993776;28;20061;-55
2023/02/28 09:23:07;;;;;;;12.95;12.05;;;;;;;;;;4991332;28;20044;-55
2023/02/28 09:25:33;;;;;;;11.95;11.23;;;;;;;;;;4994447;28;20412;-55
2023/02/28 09:27:58;;;;;;;12.63;11.77;;;;;;;;;;4993309;28;20046;-56
2023/02/28 09:30:24;;;;;;;11.48;10.77;;;;;;;;;;4992870;28;20034;-55
2023/02/28 09:32:51;;;;;;;11.25;10.55;;;;;;;;;;4993729;28;20575;-55
2023/02/28 09:35:18;;;;;;;11.30;10.60;;;;;;;;;;4993765;28;20042;-56
2023/02/28 09:37:44;;;;;;;11.80;11.10;;;;;;;;;;4993185;28;20037;-55
2023/02/28 09:40:11;;;;;;;11.45;10.75;;;;;;;;;;4997113;28;20045;-54
2023/02/28 09:42:37;;;;;;;11.48;10.77;;;;;;;;;;4995251;28;20050;-56
2023/02/28 09:45:11;;;;;;;11.27;10.57;;;;;;;;;;4991023;28;20100;-55
2023/02/28 09:47:42;;;;;;;11.15;10.45;;;;;;;;;;4992429;28;20034;-55
2023/02/28 09:50:23;;;;;;;12.93;12.13;;;;;;;;;;4988921;28;20034;-55
2023/02/28 09:52:50;;;;;;;10.80;10.15;;;;;;;;;;4996545;28;20688;-54
2023/02/28 09:55:22;;;;;;;12.40;11.05;;;;;;;;;;4994697;28;20051;-54
2023/02/28 09:57:50;;;;;;;12.98;12.18;;;;;;;;;;4995805;28;20045;-53
2023/02/28 10:00:19;;;;;;;11.18;10.48;;;;;;;;;;4996340;28;20050;-55
2023/02/28 10:03:23;;;;;;;11.77;11.07;;;;;;;;;;4995802;28;20053;-57
2023/02/28 10:06:14;;;;;;;11.18;10.48;;;;;;;;;;4993858;28;20035;-56
2023/02/28 10:08:57;;;;;;;;;;;;;;;;;;4989771;28;20042;-56
2023/02/28 10:11:24;;;;;;;11.73;10.95;;;;;;;;;;4996853;28;19913;-55
2023/02/28 10:14:04;;;;;;;12.48;11.63;;;;;;;;;;4996883;28;20030;-56
2023/02/28 10:16:51;;;;;;;12.43;11.63;;;;;;;;;;4997330;28;20169;-55
2023/02/28 10:19:36;;;;;;;11.70;11.00;;;;;;;;;;4983013;28;20133;-54
2023/02/28 10:22:11;;;;;;;13.30;12.50;;;;;;;;;;4993693;28;20058;-55
2023/02/28 10:24:45;;;;;;;12.32;11.55;;;;;;;;;;4994462;28;20070;-54
2023/02/28 10:27:24;;;;;;;11.50;10.80;;;;;;;;;;4995350;28;20514;-54
2023/02/28 10:29:54;;;;;;;11.95;11.23;;;;;;;;;;4996340;28;20053;-55
2023/02/28 10:32:22;;;;;;;10.98;10.30;;;;;;;;;;4994529;28;20041;-54
2023/02/28 10:35:13;;;;;;;11.55;10.85;;;;;;;;;;4995712;28;20180;-54
2023/02/28 10:37:40;;;;;;;11.25;10.55;;;;;;;;;;4990985;28;20042;-55
2023/02/28 10:40:25;;;;;;;11.20;10.52;;;;;;;;;;4994077;28;20460;-56
2023/02/28 10:43:01;;;;;;;12.43;11.70;;;;;;;;;;4998278;28;20103;-57
2023/02/28 10:45:30;;;;;;;13.88;13.07;;;;;;;;;;4996818;28;20069;-58
2023/02/28 10:48:15;;;;;;;12.02;11.32;;;;;;;;;;4996830;28;20034;-57
2023/02/28 10:50:49;;;;;;;12.50;11.70;;;;;;;;;;4995132;28;20701;-57
2023/02/28 10:53:24;;;;;;;12.48;11.75;;;;;;;;;;4993341;28;20400;-56
2023/02/28 10:56:06;;;;;;;11.75;11.02;;;;;;;;;;4995091;28;20461;-55
2023/02/28 10:58:56;;;;;;;12.50;11.80;;;;;;;;;;4998185;28;20633;-55
2023/02/28 11:01:24;;;;;;;12.88;12.10;;;;;;;;;;4998240;28;20096;-55
2023/02/28 11:03:50;;;;;;;14.48;13.57;;;;;;;;;;4994606;28;20125;-56
2023/02/28 11:06:23;;;;;;;13.90;13.10;;;;;;;;;;4991656;28;20046;-56
2023/02/28 11:08:58;;;;;;;15.30;14.20;;;;;;;;;;4999020;28;20034;-55
2023/02/28 11:11:27;;;;;;;13.90;13.10;;;;;;;;;;4996319;28;20030;-56
2023/02/28 11:13:55;;;;;;;12.40;11.60;;;;;;;;;;4993490;28;20092;-57
2023/02/28 11:16:21;;;;;;;12.88;12.07;;;;;;;;;;4992911;28;20125;-57
2023/02/28 11:18:55;;;;;;;13.07;12.27;;;;;;;;;;4994055;28;20551;-56
2023/02/28 11:21:28;;;;;;;13.02;12.23;;;;;;;;;;4993627;28;20092;-59
2023/02/28 11:24:00;;;;;;;12.90;12.02;;;;;;;;;;4993302;28;20038;-58
2023/02/28 11:26:37;;;;;;;12.88;12.13;;;;;;;;;;4988760;28;20034;-58
2023/02/28 11:29:20;;;;;;;13.13;12.32;;;;;;;;;;4990439;28;20030;-58
2023/02/28 11:32:11;;;;;;;12.77;12.07;;;;;;;;;;4994123;28;20041;-58
2023/02/28 11:34:37;;;;;;;13.65;12.85;;;;;;;;;;4992608;28;20045;-59
2023/02/28 11:37:06;;;;;;;13.38;12.57;;;;;;;;;;4992312;28;20372;-59
2023/02/28 11:39:32;;;;;;;14.02;13.10;;;;;;;;;;4990864;28;20470;-59
2023/02/28 11:42:16;;;;;;;12.57;11.88;;;;;;;;;;4993692;28;20117;-59
2023/02/28 11:45:19;;;;;;;12.73;11.95;;;;;;;;;;4992381;28;20133;-59
2023/02/28 11:48:29;;;;;;;13.40;12.60;;;;;;;;;;4994292;28;20026;-59
2023/02/28 11:51:03;;;;;;;12.55;11.85;;;;;;;;;;4991088;28;20042;-59
2023/02/28 11:53:51;;;;;;;14.13;13.25;;;;;;;;;;5001799;28;20045;-59
2023/02/28 11:56:33;;;;;;;12.95;12.15;;;;;;;;;;4991659;28;20030;-59
2023/02/28 11:59:04;;;;;;;13.32;12.52;;;;;;;;;;4993627;28;20120;-58
2023/02/28 12:01:30;;;;;;;;;;;;;;;;;;4994795;28;20041;-58
2023/02/28 12:03:59;;;;;;;12.95;12.05;;;;;;;;;;4993755;28;19917;-57
2023/02/28 12:06:45;;;;;;;14.02;13.23;;;;;;;;;;4994355;28;20038;-57
2023/02/28 12:09:28;;;;;;;13.80;13.00;;;;;;;;;;4993625;28;20038;-58
2023/02/28 12:12:01;;;;;;;13.50;12.60;;;;;;;;;;4998002;28;20599;-57
2023/02/28 12:15:05;;;;;;;14.13;13.25;;;;;;;;;;4994594;28;20077;-57
2023/02/28 12:17:30;;;;;;;13.43;12.45;;;;;;;;;;4993936;28;20120;-53
2023/02/28 12:20:14;;;;;;;12.55;11.75;;;;;;;;;;4995496;28;20863;-52
2023/02/28 12:23:17;;;;;;;12.85;12.05;;;;;;;;;;4991013;28;20044;-54
2023/02/28 12:25:54;;;;;;;13.05;12.25;;;;;;;;;;4991519;28;20420;-53
2023/02/28 12:28:26;;;;;;;14.32;13.35;;;;;;;;;;4989938;28;20408;-54
2023/02/28 12:31:01;;;;;;;13.20;12.40;;;;;;;;;;4995943;28;20053;-53
2023/02/28 12:33:32;;;;;;;12.30;11.50;;;;;;;;;;4992989;28;20034;-51
2023/02/28 12:36:00;;;;;;;13.38;12.57;;;;;;;;;;4991871;28;20534;-54
2023/02/28 12:38:45;;;;;;;13.00;12.20;;;;;;;;;;4989374;28;20452;-50
2023/02/28 12:41:15;;;;;;;14.23;13.23;;;;;;;;;;4992541;28;20100;-53
2023/02/28 12:43:46;;;;;;;12.40;11.68;;;;;;;;;;4999314;28;20038;-52
2023/02/28 12:46:21;;;;;;;13.80;12.90;;;;;;;;;;4988825;28;20034;-54
2023/02/28 12:48:51;;;;;;;12.60;11.88;;;;;;;;;;4993156;28;20054;-50
2023/02/28 12:51:18;;;;;;;14.90;14.00;;;;;;;;;;4991296;28;20103;-53
2023/02/28 12:54:22;;;;;;;13.60;12.80;;;;;;;;;;4989861;28;20880;-53
2023/02/28 12:56:52;;;;;;;14.60;13.68;;;;;;;;;;4992032;28;20117;-53
2023/02/28 12:59:27;;;;;;;13.00;12.20;;;;;;;;;;5000906;28;20082;-53
2023/02/28 13:02:16;;;;;;;13.45;12.65;;;;;;;;;;4994331;28;20049;-57
2023/02/28 13:05:09;;;;;;;14.88;13.82;;;;;;;;;;4993904;28;20046;-52
2023/02/28 13:08:11;;;;;;;12.57;11.77;;;;;;;;;;4993865;28;20114;-53
2023/02/28 13:10:49;;;;;;;13.48;12.65;;;;;;;;;;4994885;28;20337;-53
2023/02/28 13:13:23;;;;;;;13.05;12.25;;;;;;;;;;4992186;28;20053;-53
2023/02/28 13:16:00;;;;;;;13.30;12.50;;;;;;;;;;4993303;28;20037;-51
2023/02/28 13:18:36;;;;;;;13.07;12.20;;;;;;;;;;4992236;28;20373;-54
2023/02/28 13:21:03;;;;;;;13.80;12.90;;;;;;;;;;4994938;28;20042;-52
2023/02/28 13:24:02;;;;;;;13.48;12.68;;;;;;;;;;4992432;28;20416;-53
2023/02/28 13:26:30;;;;;;;13.02;12.23;;;;;;;;;;4975275;28;20336;-53
2023/02/28 13:29:10;;;;;;;13.25;12.35;;;;;;;;;;4996909;28;20042;-52
2023/02/28 13:32:08;;;;;;;13.18;12.38;;;;;;;;;;4996621;28;20033;-51
2023/02/28 13:34:39;;;;;;;14.60;13.73;;;;;;;;;;4979000;28;20046;-53
2023/02/28 13:37:19;;;;;;;13.18;12.38;;;;;;;;;;4996972;28;20057;-53
2023/02/28 13:39:47;;;;;;;13.73;12.93;;;;;;;;;;4997928;28;20037;-52
2023/02/28 13:42:46;;;;;;;15.05;13.93;;;;;;;;;;4998712;28;20050;-50
2023/02/28 13:45:11;;;;;;;12.52;11.82;;;;;;;;;;4998559;28;20113;-52
2023/02/28 13:47:46;;;;;;;13.10;12.30;;;;;;;;;;4996967;28;20101;-53
2023/02/28 13:50:27;;;;;;;13.30;12.50;;;;;;;;;;4996273;28;20585;-51
2023/02/28 13:53:08;;;;;;;13.10;12.30;;;;;;;;;;4998768;28;20057;-50
2023/02/28 13:55:52;;;;;;;15.43;14.53;;;;;;;;;;4995396;28;20046;-50
2023/02/28 13:58:31;;;;;;;14.05;13.15;;;;;;;;;;4996264;28;20133;-53
2023/02/28 14:01:11;;;;;;;13.07;12.27;;;;;;;;;;4996965;28;20088;-52
2023/02/28 14:03:57;;;;;;;14.10;13.20;;;;;;;;;;4998859;28;20424;-53
2023/02/28 14:06:27;;;;;;;13.45;12.65;;;;;;;;;;4994618;28;20042;-51
2023/02/28 14:09:00;;;;;;;13.55;12.75;;;;;;;;;;5000092;28;20038;-51
2023/02/28 14:11:32;;;;;;;15.13;14.23;;;;;;;;;;4993309;28;20426;-53
2023/02/28 14:13:58;;;;;;;13.85;13.05;;;;;;;;;;4996702;28;20065;-53
2023/02/28 14:16:28;;;;;;;15.13;14.15;;;;;;;;;;4996169;28;20116;-53
2023/02/28 14:19:01;;;;;;;14.85;13.93;;;;;;;;;;4995201;28;20129;-54
2023/02/28 14:21:33;;;;;;;14.80;13.85;;;;;;;;;;4995712;28;20104;-53
2023/02/28 14:24:22;;;;;;;13.38;12.57;;;;;;;;;;4995588;28;20064;-54
2023/02/28 14:27:24;;;;;;;12.93;12.13;;;;;;;;;;4995849;28;20061;-55
2023/02/28 14:29:50;;;;;;;13.15;12.35;;;;;;;;;;4996653;28;20684;-54
2023/02/28 14:32:21;;;;;;;14.82;13.93;;;;;;;;;;4995509;28;20037;-53
2023/02/28 14:35:02;;;;;;;;;;;;;;;;;;4995380;28;20034;-53
2023/02/28 14:37:33;;;;;;;13.73;12.85;;;;;;;;;;4991925;28;20287;-53
2023/02/28 14:40:01;;;;;;;14.48;13.57;;;;;;;;;;4994427;28;20065;-53
2023/02/28 14:42:35;;;;;;;14.27;13.38;;;;;;;;;;4995949;28;20040;-52
2023/02/28 14:45:01;;;;;;;13.50;12.70;;;;;;;;;;4995644;28;20053;-54
2023/02/28 14:50:52;;;;;;;13.80;12.93;;;;;;;;;;4992061;28;20034;-53
2023/02/28 14:53:21;;;;;;;14.50;13.70;;;;;;;;;;4995263;28;20169;-53
2023/02/28 14:55:48;;;;;;;13.02;12.23;;;;;;;;;;4996210;28;20710;-53
2023/02/28 14:58:40;;;;;;;14.68;13.77;;;;;;;;;;4994101;28;20037;-53
2023/02/28 15:01:05;;;;;;;15.07;13.73;;;;;;;;;;4994911;28;20046;-51